Eads, CO

11:53 AM MDT on August 28, 2015 (GMT -0600)
Kit Carson | | Change Station
CLOSE
Current Station
Personal Weather Station
Location: Kit Carson, CO
Elevation: 4301 ft
Nearby Weather Stations

Elev 4301 ft 38.77 °N, 102.79 °W | Updated 17 seconds ago

Clear
Clear
81.9 °F
Feels Like 81 °F
N
11.9
Wind Variable Wind from NW
Gusts 15.0 mph

Today
High -- | Low -- °F
--% Chance of Precip.
Yesterday
High -- | Low -- °F
Precip. -- in
6:16 AM 7:26 PM
Waxing Gibbous, 98% visible
Pressure 29.98 in
Visibility 7.0 miles
Clouds Few 11000 ft
Heat Index 81 °F
Dew Point 52 °F
Humidity 35%
Rainfall 0.00 in
Snow Depth Not available.
UV 8 out of 12
Pollen 9.90 out of 12
Air Quality Not available.
Flu Activity Not available.
METAR KLAA 281653Z AUTO 34006KT 7SM FEW110 28/16 A3013 RMK AO2 SLP150 T02780161 TSNO
Pressure 29.98 in
Visibility 7.0 miles
Clouds Few 11000 ft
Heat Index 81 °F
Dew Point 52 °F
Humidity 35%
Rainfall 0.00 in
Snow Depth Not available.
UV 8 out of 12
Pollen 9.90 out of 12
Air Quality Not available.
Flu Activity Not available.
METAR KLAA 281653Z AUTO 34006KT 7SM FEW110 28/16 A3013 RMK AO2 SLP150 T02780161 TSNO

10-Day Weather Forecast

×

Almanac

Astronomy

Aug. 28, 2015 Rise Set
Actual Time
Civil Twilight
Nautical Twilight
Astronomical Twilight
Moon
Length of Visible Light
Length of Day
Tomorrow will be .
, % of the Moon is Illuminated

Today's Extremes

State Highs State Lows

Community

WunderPhotos

Upload Photos

1,850,444 photos uploaded!

WunderBlogs® & News

Nearby

Air Quality

  Air Quality AQ Index Pollutant
Not available.

Snow Depth

Station Depth Elevation

Earthquake Activity

City Distance Mag. Time & Date
Minimum magnitude displayed is 2.5.

Coastal Water Temperatures

Place Temperature

Stations

Nearby Weather Stations

Station Location Temp. Windchill Dew Point Humidity Wind Precip. Elev Updated Type